createdAt,value
2023-03-05T00:01:35.366Z,98759.78
2023-03-05T00:04:12.685Z,98738.91
2023-03-05T00:06:45.523Z,98731.25
2023-03-05T00:09:17.837Z,98729.00
2023-03-05T00:11:50.235Z,98730.16
2023-03-05T00:14:22.373Z,98735.88
2023-03-05T00:16:55.071Z,98725.72
2023-03-05T00:19:26.975Z,98728.38
2023-03-05T00:22:00.112Z,98729.09
2023-03-05T00:24:32.062Z,98717.94
2023-03-05T00:27:05.337Z,98722.28
2023-03-05T00:29:37.655Z,98711.59
2023-03-05T00:32:32.692Z,98708.53
2023-03-05T00:35:05.545Z,98703.16
2023-03-05T00:37:40.564Z,98704.97
2023-03-05T00:40:13.195Z,98696.44
2023-03-05T00:42:45.483Z,98705.13
2023-03-05T00:45:18.310Z,98700.50
2023-03-05T00:47:51.346Z,98700.09
2023-03-05T00:50:23.711Z,98700.75
2023-03-05T00:52:56.069Z,98693.38
2023-03-05T00:55:50.458Z,98692.34
2023-03-05T00:58:22.389Z,98699.78
2023-03-05T01:00:59.570Z,98696.13
2023-03-05T01:03:34.705Z,98693.41
2023-03-05T01:09:05.074Z,98694.88
2023-03-05T01:11:37.002Z,98692.25
2023-03-05T01:14:09.914Z,98692.25
2023-03-05T01:16:41.842Z,98690.63
2023-03-05T01:19:16.947Z,98690.28
2023-03-05T01:21:49.244Z,98695.94
2023-03-05T01:24:22.681Z,98696.72
2023-03-05T01:26:55.611Z,98691.56
2023-03-05T01:29:46.675Z,98684.94
2023-03-05T01:32:19.442Z,98688.75
2023-03-05T01:35:22.722Z,98682.22
2023-03-05T01:37:56.092Z,98669.59
2023-03-05T01:40:31.227Z,98666.56
2023-03-05T01:43:12.242Z,98664.47
2023-03-05T01:46:23.793Z,98655.47
2023-03-05T01:49:10.419Z,98649.72
2023-03-05T01:51:49.468Z,98651.88
2023-03-05T01:54:26.348Z,98638.47
2023-03-05T01:57:25.913Z,98633.56
2023-03-05T02:00:05.473Z,98622.81
2023-03-05T02:02:48.198Z,98618.38
2023-03-05T02:05:28.042Z,98619.06
2023-03-05T02:08:04.220Z,98611.34
2023-03-05T02:11:00.355Z,98607.72
2023-03-05T02:13:38.741Z,98599.28
2023-03-05T02:16:11.218Z,98610.31
2023-03-05T02:18:43.642Z,98614.53
2023-03-05T02:21:28.733Z,98631.44
2023-03-05T02:26:54.638Z,98623.97
2023-03-05T02:29:29.831Z,98632.00
2023-03-05T02:32:02.360Z,98631.44
2023-03-05T02:34:38.099Z,98642.63
2023-03-05T02:37:10.638Z,98635.19
2023-03-05T02:39:44.399Z,98639.28
2023-03-05T02:42:16.774Z,98642.03
2023-03-05T02:44:49.135Z,98637.53
2023-03-05T02:47:21.550Z,98637.75
2023-03-05T02:49:55.565Z,98637.75
2023-03-05T02:52:29.821Z,98629.22
2023-03-05T02:55:02.562Z,98628.31
2023-03-05T02:57:36.089Z,98624.72
2023-03-05T03:00:09.153Z,98626.28
2023-03-05T03:02:42.692Z,98620.19
2023-03-05T03:05:14.685Z,98626.16
2023-03-05T03:07:47.400Z,98608.22
2023-03-05T03:10:19.702Z,98609.88
2023-03-05T03:12:51.610Z,98602.94
2023-03-05T03:15:24.411Z,98609.88
2023-03-05T03:17:56.590Z,98607.09
2023-03-05T03:20:29.331Z,98607.44
2023-03-05T03:23:01.871Z,98600.78
2023-03-05T03:25:35.327Z,98606.09
2023-03-05T03:28:07.182Z,98602.25
2023-03-05T03:31:01.695Z,98601.72
2023-03-05T03:33:33.606Z,98598.22
2023-03-05T03:36:06.974Z,98591.44
2023-03-05T03:38:39.315Z,98596.63
2023-03-05T03:41:12.099Z,98589.31
2023-03-05T03:43:44.429Z,98587.91
2023-03-05T03:46:17.190Z,98590.97
2023-03-05T03:48:52.689Z,98582.56
2023-03-05T03:51:26.370Z,98574.47
2023-03-05T03:53:59.514Z,98580.34
2023-03-05T03:56:32.230Z,98580.00
2023-03-05T03:59:04.388Z,98566.63
2023-03-05T04:01:37.419Z,98568.31
2023-03-05T04:04:12.744Z,98560.78
2023-03-05T04:06:45.222Z,98565.81
2023-03-05T04:09:17.894Z,98566.72
2023-03-05T04:11:49.780Z,98561.44
2023-03-05T04:14:22.090Z,98563.75
2023-03-05T04:16:54.596Z,98563.25
2023-03-05T04:19:28.296Z,98558.06
2023-03-05T04:22:00.987Z,98558.28
2023-03-05T04:24:33.052Z,98550.50
2023-03-05T04:27:06.847Z,98558.75
2023-03-05T04:29:41.652Z,98561.81
2023-03-05T04:32:15.111Z,98547.53
2023-03-05T04:34:48.066Z,98544.78
2023-03-05T04:37:20.368Z,98553.56
2023-03-05T04:39:53.615Z,98540.31
2023-03-05T04:42:25.939Z,98543.47
2023-03-05T04:44:58.722Z,98542.69
2023-03-05T04:47:30.998Z,98543.75
2023-03-05T04:50:06.360Z,98533.94
2023-03-05T04:52:45.503Z,98534.13
2023-03-05T04:55:18.644Z,98532.28
2023-03-05T04:57:50.506Z,98528.22
2023-03-05T05:00:23.447Z,98529.06
2023-03-05T05:02:59.155Z,98517.88
2023-03-05T05:05:31.059Z,98528.34
2023-03-05T05:08:25.994Z,98523.50
2023-03-05T05:11:07.489Z,98515.16
2023-03-05T05:13:39.546Z,98515.25
2023-03-05T05:16:12.204Z,98517.66
2023-03-05T05:18:44.193Z,98510.28
2023-03-05T05:21:38.973Z,98504.69
2023-03-05T05:24:11.260Z,98512.00
2023-03-05T05:26:43.978Z,98508.34
2023-03-05T05:29:15.860Z,98508.53
2023-03-05T05:31:48.730Z,98506.16
2023-03-05T05:34:20.721Z,98507.41
2023-03-05T05:36:53.825Z,98505.41
2023-03-05T05:39:26.137Z,98508.94
2023-03-05T05:41:57.977Z,98494.81
2023-03-05T05:44:31.696Z,98497.53
2023-03-05T05:47:03.614Z,98499.13
2023-03-05T05:49:36.309Z,98492.03
2023-03-05T05:52:09.458Z,98494.72
2023-03-05T05:54:41.764Z,98493.84
2023-03-05T05:57:14.128Z,98488.38
2023-03-05T05:59:46.961Z,98488.00
2023-03-05T06:02:19.301Z,98488.84
2023-03-05T06:04:51.601Z,98490.50
2023-03-05T06:07:24.319Z,98480.22
2023-03-05T06:09:57.037Z,98493.38
2023-03-05T06:12:29.362Z,98495.47
2023-03-05T06:15:01.847Z,98498.28
2023-03-05T06:17:33.828Z,98496.16
2023-03-05T06:20:07.625Z,98498.97
2023-03-05T06:22:40.260Z,98498.06
2023-03-05T06:25:13.184Z,98499.72
2023-03-05T06:27:45.625Z,98493.06
2023-03-05T06:30:18.336Z,98495.94
2023-03-05T06:32:50.601Z,98495.16
2023-03-05T06:35:22.525Z,98487.38
2023-03-05T06:37:55.556Z,98492.72
2023-03-05T06:40:27.809Z,98490.50
2023-03-05T06:43:00.498Z,98492.63
2023-03-05T06:45:32.558Z,98492.88
2023-03-05T06:48:05.415Z,98490.25
2023-03-05T06:50:37.786Z,98485.44
2023-03-05T06:53:10.535Z,98490.31
2023-03-05T06:55:42.829Z,98490.72
2023-03-05T06:58:15.066Z,98490.06
2023-03-05T07:00:48.180Z,98483.28
2023-03-05T07:03:20.429Z,98485.91
2023-03-05T07:05:53.137Z,98472.50
2023-03-05T07:08:25.039Z,98480.63
2023-03-05T07:10:57.927Z,98477.53
2023-03-05T07:13:30.436Z,98475.25
2023-03-05T07:16:07.872Z,98466.34
2023-03-05T07:18:40.600Z,98464.63
2023-03-05T07:21:19.206Z,98471.22
2023-03-05T07:23:55.035Z,98480.84
2023-03-05T07:26:28.445Z,98479.84
2023-03-05T07:31:55.569Z,98482.47
2023-03-05T07:34:28.249Z,98480.88
2023-03-05T07:37:00.716Z,98478.88
2023-03-05T07:39:33.454Z,98481.91
2023-03-05T07:42:05.375Z,98481.06
2023-03-05T07:44:54.094Z,98476.44
2023-03-05T07:47:26.507Z,98482.38
2023-03-05T07:49:58.519Z,98478.38
2023-03-05T07:52:31.613Z,98473.75
2023-03-05T07:55:03.668Z,98473.66
2023-03-05T07:57:38.520Z,98463.34
2023-03-05T08:00:11.251Z,98469.22
2023-03-05T08:02:44.231Z,98463.44
2023-03-05T08:05:16.697Z,98459.47
2023-03-05T08:07:49.462Z,98467.28
2023-03-05T08:10:21.968Z,98461.00
2023-03-05T08:12:53.913Z,98452.50
2023-03-05T08:15:26.681Z,98454.97
2023-03-05T08:18:01.832Z,98449.84
2023-03-05T08:20:37.475Z,98443.31
2023-03-05T08:23:09.345Z,98434.47
2023-03-05T08:25:42.483Z,98435.66
2023-03-05T08:28:14.460Z,98436.50
2023-03-05T08:30:49.399Z,98431.84
2023-03-05T08:33:21.657Z,98428.19
2023-03-05T08:35:53.555Z,98421.75
2023-03-05T08:41:20.475Z,98425.44
2023-03-05T08:43:53.877Z,98421.44
2023-03-05T08:46:26.633Z,98422.50
2023-03-05T08:51:51.462Z,98418.53
2023-03-05T08:54:23.342Z,98423.44
2023-03-05T08:56:56.073Z,98411.63
2023-03-05T08:59:28.379Z,98420.72
2023-03-05T09:02:02.451Z,98413.47
2023-03-05T09:04:34.786Z,98409.66
2023-03-05T09:07:06.855Z,98407.13
2023-03-05T09:09:39.659Z,98410.72
2023-03-05T09:12:13.310Z,98411.91
2023-03-05T09:14:46.192Z,98414.53
2023-03-05T09:17:18.472Z,98408.25
2023-03-05T09:19:51.314Z,98405.56
2023-03-05T09:22:23.608Z,98408.72
2023-03-05T09:24:56.334Z,98407.53
2023-03-05T09:27:28.207Z,98404.25
2023-03-05T09:30:00.921Z,98402.97
2023-03-05T09:32:33.889Z,98396.50
2023-03-05T09:35:07.706Z,98400.19
2023-03-05T09:37:40.269Z,98393.28
2023-03-05T09:40:19.278Z,98398.22
2023-03-05T09:43:28.640Z,98388.50
2023-03-05T09:46:31.959Z,98387.38
2023-03-05T09:49:56.699Z,98391.56
2023-03-05T09:52:37.161Z,98387.81
2023-03-05T09:55:33.513Z,98388.59
2023-03-05T09:58:31.225Z,98387.22
2023-03-05T10:01:30.062Z,98384.03
2023-03-05T10:07:21.232Z,98383.34
2023-03-05T10:10:02.399Z,98377.97
2023-03-05T10:13:06.614Z,98379.22
2023-03-05T10:15:54.578Z,98382.53
2023-03-05T10:18:54.872Z,98370.75
2023-03-05T10:21:57.198Z,98373.38
2023-03-05T10:24:54.392Z,98373.44
2023-03-05T10:27:55.705Z,98369.03
2023-03-05T10:31:09.524Z,98368.03
2023-03-05T10:34:00.549Z,98357.47
2023-03-05T10:37:01.367Z,98358.03
2023-03-05T10:40:12.876Z,98352.19
2023-03-05T10:43:12.953Z,98359.59
2023-03-05T10:45:52.010Z,98351.00
2023-03-05T10:48:47.406Z,98351.00
2023-03-05T10:51:21.189Z,98347.56
2023-03-05T10:53:57.713Z,98332.91
2023-03-05T10:56:31.807Z,98332.38
2023-03-05T10:59:04.258Z,98328.38
2023-03-05T11:01:37.439Z,98317.06
2023-03-05T11:04:38.654Z,98316.97
2023-03-05T11:07:33.421Z,98318.34
2023-03-05T11:10:21.322Z,98314.84
2023-03-05T11:12:54.452Z,98309.84
2023-03-05T11:15:30.603Z,98295.22
2023-03-05T11:18:21.267Z,98297.22
2023-03-05T11:20:54.019Z,98293.34
2023-03-05T11:23:26.297Z,98299.72
2023-03-05T11:26:03.870Z,98284.31
2023-03-05T11:28:55.487Z,98294.06
2023-03-05T11:31:31.998Z,98291.72
2023-03-05T11:34:19.022Z,98287.19
2023-03-05T11:36:54.260Z,98285.72
2023-03-05T11:39:28.266Z,98279.75
2023-03-05T11:42:07.358Z,98274.88
2023-03-05T11:44:55.811Z,98273.13
2023-03-05T11:47:47.603Z,98261.28
2023-03-05T11:50:27.310Z,98263.09
2023-03-05T11:53:09.840Z,98261.81
2023-03-05T11:56:03.229Z,98257.94
2023-03-05T11:58:47.253Z,98251.00
2023-03-05T12:01:25.772Z,98246.50
2023-03-05T12:04:00.446Z,98247.78
2023-03-05T12:06:47.280Z,98238.06
2023-03-05T12:09:42.662Z,98232.16
2023-03-05T12:12:36.229Z,98229.09
2023-03-05T12:15:58.615Z,98219.41
2023-03-05T12:19:09.305Z,98224.78
2023-03-05T12:21:43.558Z,98212.59
2023-03-05T12:24:27.447Z,98209.38
2023-03-05T12:27:03.145Z,98212.41
2023-03-05T12:29:49.343Z,98206.19
2023-03-05T12:32:31.765Z,98202.66
2023-03-05T12:35:22.769Z,98203.56
2023-03-05T12:37:55.057Z,98201.19
2023-03-05T12:40:33.705Z,98196.34
2023-03-05T12:43:31.365Z,98187.69
2023-03-05T12:46:26.711Z,98175.16
2023-03-05T12:48:59.669Z,98181.88
2023-03-05T12:51:38.899Z,98179.13
2023-03-05T12:54:42.313Z,98170.44
2023-03-05T12:57:23.698Z,98171.78
2023-03-05T13:00:21.927Z,98166.06
2023-03-05T13:03:01.029Z,98167.53
2023-03-05T13:05:38.139Z,98160.44
2023-03-05T13:08:15.798Z,98153.22
2023-03-05T13:11:03.935Z,98146.78
2023-03-05T13:13:42.515Z,98151.28
2023-03-05T13:16:29.666Z,98147.44
2023-03-05T13:19:02.651Z,98142.06
2023-03-05T13:21:35.698Z,98142.53
2023-03-05T13:24:19.457Z,98137.44
2023-03-05T13:26:51.766Z,98136.00
2023-03-05T13:29:28.125Z,98129.06
2023-03-05T13:32:25.929Z,98125.34
2023-03-05T13:35:01.145Z,98127.53
2023-03-05T13:37:37.909Z,98117.13
2023-03-05T13:40:22.253Z,98118.50
2023-03-05T13:42:56.119Z,98119.72
2023-03-05T13:45:30.876Z,98117.75
2023-03-05T13:48:07.101Z,98118.25
2023-03-05T13:50:40.802Z,98118.31
2023-03-05T13:53:23.324Z,98115.00
2023-03-05T13:56:03.379Z,98113.41
2023-03-05T13:58:57.886Z,98110.16
2023-03-05T14:01:43.638Z,98107.28
2023-03-05T14:04:16.618Z,98090.59
2023-03-05T14:07:06.519Z,98101.19
2023-03-05T14:09:41.787Z,98097.78
2023-03-05T14:12:42.672Z,98095.50
2023-03-05T14:15:31.457Z,98101.75
2023-03-05T14:18:19.281Z,98095.38
2023-03-05T14:21:18.030Z,98091.47
2023-03-05T14:23:57.776Z,98085.97
2023-03-05T14:26:35.512Z,98085.44
2023-03-05T14:29:10.588Z,98077.47
2023-03-05T14:32:01.054Z,98078.72
2023-03-05T14:34:42.962Z,98079.38
2023-03-05T14:37:38.290Z,98077.78
2023-03-05T14:40:13.344Z,98077.06
2023-03-05T14:42:58.592Z,98076.44
2023-03-05T14:45:38.535Z,98062.78
2023-03-05T14:48:15.413Z,98060.81
2023-03-05T14:50:57.279Z,98065.97
2023-03-05T14:53:39.562Z,98055.53
2023-03-05T14:56:24.458Z,98049.06
2023-03-05T14:59:00.318Z,98048.19
2023-03-05T15:01:32.303Z,98041.16
2023-03-05T15:04:05.175Z,98035.31
2023-03-05T15:06:40.225Z,98038.56
2023-03-05T15:09:13.040Z,98022.91
2023-03-05T15:11:45.950Z,98024.13
2023-03-05T15:14:18.210Z,98022.78
2023-03-05T15:16:50.591Z,98015.47
2023-03-05T15:19:22.957Z,98018.75
2023-03-05T15:21:54.863Z,98012.88
2023-03-05T15:24:27.138Z,98010.19
2023-03-05T15:26:59.021Z,98010.22
2023-03-05T15:29:31.287Z,98007.66
2023-03-05T15:32:05.372Z,98004.94
2023-03-05T15:34:38.104Z,97998.97
2023-03-05T15:37:10.155Z,97999.09
2023-03-05T15:39:42.481Z,97993.81
2023-03-05T15:42:14.395Z,97983.09
2023-03-05T15:44:46.778Z,97978.47
2023-03-05T15:47:18.712Z,97989.53
2023-03-05T15:49:51.381Z,97984.31
2023-03-05T15:52:23.452Z,97985.03
2023-03-05T15:54:56.109Z,97978.44
2023-03-05T15:57:28.396Z,97978.88
2023-03-05T16:00:01.846Z,97982.28
2023-03-05T16:02:33.772Z,97978.31
2023-03-05T16:05:07.957Z,97974.44
2023-03-05T16:07:44.324Z,97967.16
2023-03-05T16:10:22.045Z,97969.13
2023-03-05T16:13:04.043Z,97965.19
2023-03-05T16:15:36.837Z,97964.44
2023-03-05T16:18:13.981Z,97960.31
2023-03-05T16:20:46.426Z,97951.22
2023-03-05T16:23:19.038Z,97961.53
2023-03-05T16:25:51.842Z,97958.13
2023-03-05T16:28:23.830Z,97950.31
2023-03-05T16:30:58.215Z,97945.78
2023-03-05T16:33:30.158Z,97943.78
2023-03-05T16:36:14.148Z,97943.16
2023-03-05T16:38:47.295Z,97941.78
2023-03-05T16:41:23.186Z,97946.25
2023-03-05T16:43:57.056Z,97944.28
2023-03-05T16:46:30.581Z,97940.41
2023-03-05T16:49:02.906Z,97936.53
2023-03-05T16:51:36.028Z,97938.34
2023-03-05T16:54:10.075Z,97935.00
2023-03-05T16:56:42.534Z,97935.00
2023-03-05T16:59:14.831Z,97930.97
2023-03-05T17:01:47.148Z,97927.66
2023-03-05T17:04:19.120Z,97935.41
2023-03-05T17:06:52.182Z,97933.97
2023-03-05T17:09:24.555Z,97937.97
2023-03-05T17:11:57.920Z,97934.66
2023-03-05T17:14:29.917Z,97934.53
2023-03-05T17:17:02.218Z,97933.25
2023-03-05T17:19:34.202Z,97925.44
2023-03-05T17:22:07.076Z,97927.97
2023-03-05T17:24:42.602Z,97935.88
2023-03-05T17:27:19.069Z,97934.94
2023-03-05T17:29:51.372Z,97932.13
2023-03-05T17:32:23.728Z,97929.38
2023-03-05T17:34:56.744Z,97944.34
2023-03-05T17:37:29.006Z,97931.78
2023-03-05T17:40:01.426Z,97935.66
2023-03-05T17:42:33.749Z,97937.69
2023-03-05T17:45:07.040Z,97936.28
2023-03-05T17:47:39.781Z,97938.13
2023-03-05T17:50:13.931Z,97933.78
2023-03-05T17:52:46.805Z,97936.50
2023-03-05T17:55:18.824Z,97941.09
2023-03-05T17:57:51.930Z,97931.09
2023-03-05T18:00:28.707Z,97931.84
2023-03-05T18:03:01.428Z,97940.16
2023-03-05T18:05:33.669Z,97928.88
2023-03-05T18:08:06.455Z,97922.78
2023-03-05T18:10:38.411Z,97920.13
2023-03-05T18:13:10.795Z,97925.16
2023-03-05T18:15:47.518Z,97924.97
2023-03-05T18:18:19.896Z,97926.00
2023-03-05T18:20:51.791Z,97931.81
2023-03-05T18:23:24.125Z,97922.56
2023-03-05T18:25:55.993Z,97930.41
2023-03-05T18:28:28.709Z,97932.38
2023-03-05T18:31:01.769Z,97929.66
2023-03-05T18:33:34.133Z,97928.41
2023-03-05T18:36:06.879Z,97931.38
2023-03-05T18:38:39.070Z,97929.13
2023-03-05T18:41:31.772Z,97923.91
2023-03-05T18:44:04.703Z,97917.91
2023-03-05T18:46:36.643Z,97918.97
2023-03-05T18:49:09.820Z,97917.59
2023-03-05T18:51:42.553Z,97912.59
2023-03-05T18:54:14.942Z,97921.97
2023-03-05T18:56:46.815Z,97917.34
2023-03-05T18:59:19.171Z,97920.88
2023-03-05T19:01:51.160Z,97921.41
2023-03-05T19:04:23.542Z,97916.22
2023-03-05T19:06:55.499Z,97914.16
2023-03-05T19:09:45.408Z,97912.75
2023-03-05T19:12:27.060Z,97908.41
2023-03-05T19:15:00.041Z,97909.66
2023-03-05T19:17:33.154Z,97907.84
2023-03-05T19:20:07.936Z,97900.09
2023-03-05T19:22:40.423Z,97903.47
2023-03-05T19:25:13.211Z,97901.38
2023-03-05T19:27:45.136Z,97895.34
2023-03-05T19:30:18.912Z,97877.91
2023-03-05T19:32:50.878Z,97896.63
2023-03-05T19:35:23.300Z,97886.09
2023-03-05T19:37:55.283Z,97878.19
2023-03-05T19:40:27.674Z,97880.31
2023-03-05T19:42:59.634Z,97879.16
2023-03-05T19:45:35.399Z,97870.91
2023-03-05T19:48:07.518Z,97859.50
2023-03-05T19:50:41.214Z,97864.06
2023-03-05T19:53:13.101Z,97858.09
2023-03-05T19:55:45.528Z,97858.38
2023-03-05T19:58:17.808Z,97857.72
2023-03-05T20:00:50.125Z,97853.09
2023-03-05T20:03:21.969Z,97855.41
2023-03-05T20:05:54.410Z,97849.97
2023-03-05T20:08:26.321Z,97845.91
2023-03-05T20:10:58.806Z,97852.97
2023-03-05T20:13:32.301Z,97854.69
2023-03-05T20:16:06.480Z,97842.03
2023-03-05T20:18:38.536Z,97839.94
2023-03-05T20:21:11.199Z,97836.22
2023-03-05T20:23:43.100Z,97836.34
2023-03-05T20:26:15.464Z,97841.81
2023-03-05T20:28:48.383Z,97835.81
2023-03-05T20:31:24.030Z,97835.38
2023-03-05T20:33:56.353Z,97826.13
2023-03-05T20:36:29.115Z,97831.78
2023-03-05T20:39:03.131Z,97832.53
2023-03-05T20:41:39.012Z,97826.16
2023-03-05T20:44:11.440Z,97826.88
2023-03-05T20:46:53.719Z,97822.72
2023-03-05T20:49:25.740Z,97831.81
2023-03-05T20:51:58.182Z,97826.59
2023-03-05T20:54:30.506Z,97826.91
2023-03-05T20:57:02.938Z,97827.41
2023-03-05T20:59:34.879Z,97821.75
2023-03-05T21:02:09.764Z,97820.91
2023-03-05T21:04:41.727Z,97819.03
2023-03-05T21:07:14.208Z,97818.16
2023-03-05T21:09:46.562Z,97814.63
2023-03-05T21:12:18.915Z,97807.44
2023-03-05T21:14:50.865Z,97813.28
2023-03-05T21:17:23.240Z,97804.97
2023-03-05T21:19:55.646Z,97805.44
2023-03-05T21:22:27.986Z,97800.97
2023-03-05T21:25:20.759Z,97794.41
2023-03-05T21:28:10.862Z,97801.59
2023-03-05T21:30:49.707Z,97799.50
2023-03-05T21:33:28.695Z,97787.75
2023-03-05T21:36:00.657Z,97781.88
2023-03-05T21:38:34.256Z,97780.59
2023-03-05T21:41:06.149Z,97772.03
2023-03-05T21:43:38.696Z,97773.41
2023-03-05T21:46:11.161Z,97778.06
2023-03-05T21:48:44.039Z,97773.72
2023-03-05T21:51:16.906Z,97772.97
2023-03-05T21:53:50.762Z,97757.34
2023-03-05T21:56:24.952Z,97764.41
2023-03-05T21:58:57.487Z,97764.47
2023-03-05T22:01:29.460Z,97761.59
2023-03-05T22:04:02.468Z,97750.00
2023-03-05T22:06:35.470Z,97751.97
2023-03-05T22:09:07.844Z,97751.25
2023-03-05T22:11:42.711Z,97748.03
2023-03-05T22:14:16.928Z,97745.41
2023-03-05T22:16:53.221Z,97743.44
2023-03-05T22:19:25.647Z,97746.66
2023-03-05T22:21:57.639Z,97737.13
2023-03-05T22:24:30.010Z,97746.25
2023-03-05T22:27:01.954Z,97729.28
2023-03-05T22:29:34.446Z,97729.75
2023-03-05T22:32:06.475Z,97733.13
2023-03-05T22:34:38.821Z,97729.13
2023-03-05T22:37:11.140Z,97733.72
2023-03-05T22:39:43.505Z,97726.56
2023-03-05T22:42:15.382Z,97725.38
2023-03-05T22:44:47.828Z,97723.44
2023-03-05T22:47:19.740Z,97714.06
2023-03-05T22:49:52.218Z,97719.16
2023-03-05T22:52:24.153Z,97708.09
2023-03-05T22:54:56.517Z,97708.13
2023-03-05T22:57:28.953Z,97710.75
2023-03-05T23:00:01.531Z,97704.28
2023-03-05T23:02:33.480Z,97701.78
2023-03-05T23:05:07.938Z,97701.78
2023-03-05T23:07:42.140Z,97695.34
2023-03-05T23:10:25.564Z,97696.56
2023-03-05T23:13:00.535Z,97692.09
2023-03-05T23:15:36.990Z,97685.00
2023-03-05T23:18:08.962Z,97675.13
2023-03-05T23:20:42.347Z,97680.97
2023-03-05T23:23:14.220Z,97667.22
2023-03-05T23:25:49.905Z,97672.78
2023-03-05T23:28:21.833Z,97663.66
2023-03-05T23:30:54.274Z,97655.72
2023-03-05T23:33:26.242Z,97656.47
2023-03-05T23:36:00.757Z,97651.28
2023-03-05T23:38:33.137Z,97654.72
2023-03-05T23:41:09.581Z,97650.06
2023-03-05T23:43:41.482Z,97655.06
2023-03-05T23:46:13.850Z,97652.53
2023-03-05T23:48:45.852Z,97660.34
2023-03-05T23:51:18.307Z,97655.38
2023-03-05T23:53:50.257Z,97659.09
2023-03-05T23:56:22.621Z,97652.56
2023-03-05T23:59:00.329Z,97655.22
